Summary for KCOGRAND2

Redlands, Southcamp Road & Dakota Circle, Grand Junction, CO 81507
Join the PWSweather.com Network
View data in metric units
Latest Conditions
Updated 5:14:30 PM MDT Wednesday, Jul 30, 2014
Data Currently Today's Max Today's Min Today's Average
Temperature 82.2°F27.9°C 82.6°F28.1°C 60.4°F15.8°C 69.8°F21.0°C
Dew Point 43.9°F6.6°C 57.9°F14.4°C 40.1°F4.5°C 52.0°F11.1°C
Winds 11.0 mph S17.7 kmh S 11.0 mph S17.7 kmh S CalmCalm 4.1 mph6.6 kmh
Wind Gusts 16.8 mph27.0 kmh 17.2 mph27.7 kmh -- 7.2 mph11.6 kmh
Humidity 26% 86% 23% 58%
Pressure 25.13 in851.0 mb 25.22 in854.0 mb 25.13 in851.0 mb 25.19 in853.0 mb
Precipitation 0.00 in0.0 mm - - 0.00 in0.0 mm
Trends
 
Station Profile
Redlands, Southcamp Road & Dakota CircleGrand Junction, CO 81507

Lat: 39.055, Lon: -108.637
Elevation: 4870
Station Type: RadioShack WX200

Detailed Summary for Wed, Jul 30, 2014
Hour (MDT) Temperature Dew Point Humidity Winds Wind Gusts Pressure Precip Precip Rate Daily Precip Total
05:14 PM 82.2°F27.9°C 43.9°F6.6°C 26% 11.0 mph S17.7 kmh S 16.8 mph27.0 kmh 25.13 in851.0 mb 0.00 in0.0 mm 0.00 in/hr0.0 mm/hr 0.00 in0.0 mm
05:09 PM 82.4°F28.0°C 40.8°F4.9°C 23% 11.0 mph S17.7 kmh S 16.3 mph26.2 kmh 25.16 in852.0 mb 0.00 in0.0 mm 0.00 in/hr0.0 mm/hr 0.00 in0.0 mm
05:04 PM 82.2°F27.9°C 41.7°F5.4°C 24% 11.0 mph S17.7 kmh S 16.8 mph27.0 kmh 25.16 in852.0 mb 0.00 in0.0 mm 0.00 in/hr0.0 mm/hr 0.00 in0.0 mm
04:59 PM 82.0°F27.8°C 40.6°F4.8°C 23% 11.0 mph S17.7 kmh S 14.8 mph23.8 kmh 25.16 in852.0 mb 0.00 in0.0 mm 0.00 in/hr0.0 mm/hr 0.00 in0.0 mm
04:54 PM 82.2°F27.9°C 41.7°F5.4°C 24% 10.0 mph S16.1 kmh S 15.9 mph25.6 kmh 25.16 in852.0 mb 0.00 in0.0 mm 0.00 in/hr0.0 mm/hr 0.00 in0.0 mm
04:49 PM 81.5°F27.5°C 40.1°F4.5°C 23% 10.0 mph S16.1 kmh S 15.9 mph25.6 kmh 25.16 in852.0 mb 0.00 in0.0 mm 0.00 in/hr0.0 mm/hr 0.00 in0.0 mm
04:44 PM 81.5°F27.5°C 40.1°F4.5°C 23% 9.0 mph S14.5 kmh S 14.3 mph23.0 kmh 25.16 in852.0 mb 0.00 in0.0 mm 0.00 in/hr0.0 mm/hr 0.00 in0.0 mm
04:39 PM 82.6°F28.1°C 41.0°F5.0°C 23% 7.0 mph S11.3 kmh S 11.2 mph18.0 kmh 25.16 in852.0 mb 0.00 in0.0 mm 0.00 in/hr0.0 mm/hr 0.00 in0.0 mm
04:34 PM 82.2°F27.9°C 40.6°F4.8°C 23% 8.0 mph S12.9 kmh S 12.1 mph19.5 kmh 25.16 in852.0 mb 0.00 in0.0 mm 0.00 in/hr0.0 mm/hr 0.00 in0.0 mm
04:29 PM 82.4°F28.0°C 40.8°F4.9°C 23% 10.0 mph S16.1 kmh S 14.8 mph23.8 kmh 25.16 in852.0 mb 0.00 in0.0 mm 0.00 in/hr0.0 mm/hr 0.00 in0.0 mm
04:24 PM 81.9°F27.7°C 42.6°F5.9°C 25% 10.0 mph S16.1 kmh S 13.4 mph21.6 kmh 25.13 in851.0 mb 0.00 in0.0 mm 0.00 in/hr0.0 mm/hr 0.00 in0.0 mm
04:19 PM 82.0°F27.8°C 40.6°F4.8°C 23% 8.0 mph S12.9 kmh S 17.2 mph27.7 kmh 25.13 in851.0 mb 0.00 in0.0 mm 0.00 in/hr0.0 mm/hr 0.00 in0.0 mm
04:14 PM 81.7°F27.6°C 41.4°F5.2°C 24% 8.0 mph S12.9 kmh S 11.2 mph18.0 kmh 25.13 in851.0 mb 0.00 in0.0 mm 0.00 in/hr0.0 mm/hr 0.00 in0.0 mm
04:09 PM 80.8°F27.1°C 43.7°F6.5°C 27% 8.0 mph SSW12.9 kmh SSW 12.1 mph19.5 kmh 25.16 in852.0 mb 0.00 in0.0 mm 0.00 in/hr0.0 mm/hr 0.00 in0.0 mm
04:04 PM 80.8°F27.1°C 45.5°F7.5°C 29% 7.0 mph SSW11.3 kmh SSW 10.1 mph16.3 kmh 25.16 in852.0 mb 0.00 in0.0 mm 0.00 in/hr0.0 mm/hr 0.00 in0.0 mm
03:59 PM 80.4°F26.9°C 45.1°F7.3°C 29% 7.0 mph SSW11.3 kmh SSW 10.5 mph16.9 kmh 25.16 in852.0 mb 0.00 in0.0 mm 0.00 in/hr0.0 mm/hr 0.00 in0.0 mm
03:54 PM 80.2°F26.8°C 44.1°F6.7°C 28% 6.0 mph SSW9.7 kmh SSW 9.6 mph15.4 kmh 25.16 in852.0 mb 0.00 in0.0 mm 0.00 in/hr0.0 mm/hr 0.00 in0.0 mm
03:49 PM 79.9°F26.6°C 44.8°F7.1°C 29% 6.0 mph S9.7 kmh S 10.5 mph16.9 kmh 25.16 in852.0 mb 0.00 in0.0 mm 0.00 in/hr0.0 mm/hr 0.00 in0.0 mm
03:44 PM 79.7°F26.5°C 45.5°F7.5°C 30% 8.0 mph S12.9 kmh S 10.1 mph16.3 kmh 25.16 in852.0 mb 0.00 in0.0 mm 0.00 in/hr0.0 mm/hr 0.00 in0.0 mm
03:39 PM 79.5°F26.4°C 45.3°F7.4°C 30% 8.0 mph S12.9 kmh S 11.6 mph18.7 kmh 25.16 in852.0 mb 0.00 in0.0 mm 0.00 in/hr0.0 mm/hr 0.00 in0.0 mm
03:34 PM 79.7°F26.5°C 46.4°F8.0°C 31% 8.0 mph SSW12.9 kmh SSW 13.0 mph20.9 kmh 25.16 in852.0 mb 0.00 in0.0 mm 0.00 in/hr0.0 mm/hr 0.00 in0.0 mm
03:29 PM 79.7°F26.5°C 45.5°F7.5°C 30% 7.0 mph S11.3 kmh S 12.1 mph19.5 kmh 25.16 in852.0 mb 0.00 in0.0 mm 0.00 in/hr0.0 mm/hr 0.00 in0.0 mm
03:24 PM 79.9°F26.6°C 45.7°F7.6°C 30% 7.0 mph S11.3 kmh S 11.0 mph17.7 kmh 25.16 in852.0 mb 0.00 in0.0 mm 0.00 in/hr0.0 mm/hr 0.00 in0.0 mm
03:19 PM 79.7°F26.5°C 47.1°F8.4°C 32% 7.0 mph SSW11.3 kmh SSW 12.1 mph19.5 kmh 25.16 in852.0 mb 0.00 in0.0 mm 0.00 in/hr0.0 mm/hr 0.00 in0.0 mm
03:14 PM 79.5°F26.4°C 46.2°F7.9°C 31% 8.0 mph SW12.9 kmh SW 12.5 mph20.1 kmh 25.16 in852.0 mb 0.00 in0.0 mm 0.00 in/hr0.0 mm/hr 0.00 in0.0 mm
03:09 PM 79.7°F26.5°C 46.4°F8.0°C 31% 9.0 mph S14.5 kmh S 12.1 mph19.5 kmh 25.16 in852.0 mb 0.00 in0.0 mm 0.00 in/hr0.0 mm/hr 0.00 in0.0 mm
03:04 PM 80.1°F26.7°C 45.9°F7.7°C 30% 7.0 mph SSW11.3 kmh SSW 13.4 mph21.6 kmh 25.16 in852.0 mb 0.00 in0.0 mm 0.00 in/hr0.0 mm/hr 0.00 in0.0 mm
02:59 PM 81.0°F27.2°C 47.5°F8.6°C 31% 6.0 mph SSW9.7 kmh SSW 12.1 mph19.5 kmh 25.16 in852.0 mb 0.00 in0.0 mm 0.00 in/hr0.0 mm/hr 0.00 in0.0 mm
02:54 PM 80.2°F26.8°C 46.8°F8.2°C 31% 7.0 mph SW11.3 kmh SW 11.6 mph18.7 kmh 25.16 in852.0 mb 0.00 in0.0 mm 0.00 in/hr0.0 mm/hr 0.00 in0.0 mm
02:49 PM 80.1°F26.7°C 48.4°F9.1°C 33% 7.0 mph SW11.3 kmh SW 11.0 mph17.7 kmh 25.16 in852.0 mb 0.00 in0.0 mm 0.00 in/hr0.0 mm/hr 0.00 in0.0 mm
02:44 PM 79.3°F26.3°C 46.0°F7.8°C 31% 7.0 mph SW11.3 kmh SW 13.9 mph22.4 kmh 25.16 in852.0 mb 0.00 in0.0 mm 0.00 in/hr0.0 mm/hr 0.00 in0.0 mm
02:39 PM 80.6°F27.0°C 46.2°F7.9°C 30% 5.0 mph SW8.0 kmh SW 11.0 mph17.7 kmh 25.16 in852.0 mb 0.00 in0.0 mm 0.00 in/hr0.0 mm/hr 0.00 in0.0 mm
02:34 PM 81.5°F27.5°C 47.1°F8.4°C 30% 6.0 mph SW9.7 kmh SW 8.3 mph13.4 kmh 25.16 in852.0 mb 0.00 in0.0 mm 0.00 in/hr0.0 mm/hr 0.00 in0.0 mm
02:29 PM 80.4°F26.9°C 45.1°F7.3°C 29% 7.0 mph SW11.3 kmh SW 11.6 mph18.7 kmh 25.16 in852.0 mb 0.00 in0.0 mm 0.00 in/hr0.0 mm/hr 0.00 in0.0 mm
02:24 PM 80.1°F26.7°C 45.9°F7.7°C 30% 7.0 mph SW11.3 kmh SW 12.1 mph19.5 kmh 25.16 in852.0 mb 0.00 in0.0 mm 0.00 in/hr0.0 mm/hr 0.00 in0.0 mm
02:19 PM 80.6°F27.0°C 47.1°F8.4°C 31% 5.0 mph SSW8.0 kmh SSW 10.1 mph16.3 kmh 25.16 in852.0 mb 0.00 in0.0 mm 0.00 in/hr0.0 mm/hr 0.00 in0.0 mm
02:14 PM 80.4°F26.9°C 46.0°F7.8°C 30% 4.0 mph SE6.4 kmh SE 7.4 mph11.9 kmh 25.16 in852.0 mb 0.00 in0.0 mm 0.00 in/hr0.0 mm/hr 0.00 in0.0 mm
02:09 PM 81.3°F27.4°C 46.9°F8.3°C 30% 3.0 mph E4.8 kmh E 6.3 mph10.1 kmh 25.16 in852.0 mb 0.00 in0.0 mm 0.00 in/hr0.0 mm/hr 0.00 in0.0 mm
02:04 PM 80.4°F26.9°C 46.0°F7.8°C 30% 4.0 mph SSE6.4 kmh SSE 10.1 mph16.3 kmh 25.16 in852.0 mb 0.00 in0.0 mm 0.00 in/hr0.0 mm/hr 0.00 in0.0 mm
01:59 PM 80.2°F26.8°C 46.0°F7.8°C 30% 6.0 mph SSE9.7 kmh SSE 10.5 mph16.9 kmh 25.16 in852.0 mb 0.00 in0.0 mm 0.00 in/hr0.0 mm/hr 0.00 in0.0 mm
01:54 PM 80.2°F26.8°C 46.0°F7.8°C 30% 4.0 mph SW6.4 kmh SW 10.5 mph16.9 kmh 25.16 in852.0 mb 0.00 in0.0 mm 0.00 in/hr0.0 mm/hr 0.00 in0.0 mm
01:49 PM 80.6°F27.0°C 47.1°F8.4°C 31% 3.0 mph WSW4.8 kmh WSW 9.2 mph14.8 kmh 25.16 in852.0 mb 0.00 in0.0 mm 0.00 in/hr0.0 mm/hr 0.00 in0.0 mm
01:44 PM 79.2°F26.2°C 45.0°F7.2°C 30% 5.0 mph WSW8.0 kmh WSW 7.8 mph12.6 kmh 25.16 in852.0 mb 0.00 in0.0 mm 0.00 in/hr0.0 mm/hr 0.00 in0.0 mm
01:39 PM 78.3°F25.7°C 43.3°F6.3°C 29% 6.0 mph SW9.7 kmh SW 11.6 mph18.7 kmh 25.19 in853.0 mb 0.00 in0.0 mm 0.00 in/hr0.0 mm/hr 0.00 in0.0 mm
01:34 PM 78.8°F26.0°C 44.8°F7.1°C 30% 5.0 mph SW8.0 kmh SW 8.7 mph14.0 kmh 25.19 in853.0 mb 0.00 in0.0 mm 0.00 in/hr0.0 mm/hr 0.00 in0.0 mm
01:29 PM 79.5°F26.4°C 45.3°F7.4°C 30% 4.0 mph WSW6.4 kmh WSW 10.1 mph16.3 kmh 25.19 in853.0 mb 0.00 in0.0 mm 0.00 in/hr0.0 mm/hr 0.00 in0.0 mm
01:24 PM 79.2°F26.2°C 45.9°F7.7°C 31% 6.0 mph WSW9.7 kmh WSW 8.7 mph14.0 kmh 25.19 in853.0 mb 0.00 in0.0 mm 0.00 in/hr0.0 mm/hr 0.00 in0.0 mm
01:19 PM 78.4°F25.8°C 44.4°F6.9°C 30% 7.0 mph WSW11.3 kmh WSW 12.1 mph19.5 kmh 25.19 in853.0 mb 0.00 in0.0 mm 0.00 in/hr0.0 mm/hr 0.00 in0.0 mm
01:14 PM 77.9°F25.5°C 43.9°F6.6°C 30% 6.0 mph WSW9.7 kmh WSW 11.0 mph17.7 kmh 25.19 in853.0 mb 0.00 in0.0 mm 0.00 in/hr0.0 mm/hr 0.00 in0.0 mm
01:09 PM 78.3°F25.7°C 46.0°F7.8°C 32% 6.0 mph SW9.7 kmh SW 10.5 mph16.9 kmh 25.19 in853.0 mb 0.00 in0.0 mm 0.00 in/hr0.0 mm/hr 0.00 in0.0 mm
01:04 PM 78.4°F25.8°C 47.7°F8.7°C 34% 5.0 mph S8.0 kmh S 11.0 mph17.7 kmh 25.19 in853.0 mb 0.00 in0.0 mm 0.00 in/hr0.0 mm/hr 0.00 in0.0 mm
12:59 PM 78.1°F25.6°C 45.9°F7.7°C 32% 4.0 mph S6.4 kmh S 8.3 mph13.4 kmh 25.19 in853.0 mb 0.00 in0.0 mm 0.00 in/hr0.0 mm/hr 0.00 in0.0 mm
12:54 PM 78.1°F25.6°C 45.9°F7.7°C 32% 5.0 mph S8.0 kmh S 7.4 mph11.9 kmh 25.19 in853.0 mb 0.00 in0.0 mm 0.00 in/hr0.0 mm/hr 0.00 in0.0 mm
12:49 PM 77.9°F25.5°C 45.7°F7.6°C 32% 5.0 mph SW8.0 kmh SW 10.1 mph16.3 kmh 25.19 in853.0 mb 0.00 in0.0 mm 0.00 in/hr0.0 mm/hr 0.00 in0.0 mm
12:44 PM 78.3°F25.7°C 47.5°F8.6°C 34% 4.0 mph WSW6.4 kmh WSW 6.7 mph10.8 kmh 25.19 in853.0 mb 0.00 in0.0 mm 0.00 in/hr0.0 mm/hr 0.00 in0.0 mm
12:39 PM 77.4°F25.2°C 48.4°F9.1°C 36% 4.0 mph WSW6.4 kmh WSW 7.8 mph12.6 kmh 25.19 in853.0 mb 0.00 in0.0 mm 0.00 in/hr0.0 mm/hr 0.00 in0.0 mm
12:34 PM 76.5°F24.7°C 48.2°F9.0°C 37% 5.0 mph WSW8.0 kmh WSW 9.2 mph14.8 kmh 25.19 in853.0 mb 0.00 in0.0 mm 0.00 in/hr0.0 mm/hr 0.00 in0.0 mm
12:28 PM 76.8°F24.9°C 49.3°F9.6°C 38% 5.0 mph WSW8.0 kmh WSW 6.9 mph11.1 kmh 25.19 in853.0 mb 0.00 in0.0 mm 0.00 in/hr0.0 mm/hr 0.00 in0.0 mm
12:23 PM 76.5°F24.7°C 48.9°F9.4°C 38% 3.0 mph E4.8 kmh E 7.4 mph11.9 kmh 25.19 in853.0 mb 0.00 in0.0 mm 0.00 in/hr0.0 mm/hr 0.00 in0.0 mm
12:18 PM 77.0°F25.0°C 48.0°F8.9°C 36% 2.0 mph NE3.2 kmh NE 5.4 mph8.7 kmh 25.19 in853.0 mb 0.00 in0.0 mm 0.00 in/hr0.0 mm/hr 0.00 in0.0 mm
12:13 PM 75.2°F24.0°C 45.7°F7.6°C 35% 3.0 mph NNE4.8 kmh NNE 5.8 mph9.3 kmh 25.19 in853.0 mb 0.00 in0.0 mm 0.00 in/hr0.0 mm/hr 0.00 in0.0 mm
12:08 PM 75.7°F24.3°C 47.7°F8.7°C 37% 3.0 mph NNW4.8 kmh NNW 7.4 mph11.9 kmh 25.19 in853.0 mb 0.00 in0.0 mm 0.00 in/hr0.0 mm/hr 0.00 in0.0 mm
12:03 PM 75.9°F24.4°C 47.8°F8.8°C 37% 2.0 mph W3.2 kmh W 7.4 mph11.9 kmh 25.19 in853.0 mb 0.00 in0.0 mm 0.00 in/hr0.0 mm/hr 0.00 in0.0 mm
11:58 AM 75.7°F24.3°C 47.7°F8.7°C 37% 2.0 mph W3.2 kmh W 5.8 mph9.3 kmh 25.19 in853.0 mb 0.00 in0.0 mm 0.00 in/hr0.0 mm/hr 0.00 in0.0 mm
11:53 AM 74.8°F23.8°C 48.9°F9.4°C 40% 3.0 mph W4.8 kmh W 6.3 mph10.1 kmh 25.19 in853.0 mb 0.00 in0.0 mm 0.00 in/hr0.0 mm/hr 0.00 in0.0 mm
11:48 AM 74.5°F23.6°C 49.3°F9.6°C 41% 4.0 mph W6.4 kmh W 6.9 mph11.1 kmh 25.19 in853.0 mb 0.00 in0.0 mm 0.00 in/hr0.0 mm/hr 0.00 in0.0 mm
11:43 AM 74.5°F23.6°C 50.5°F10.3°C 43% 4.0 mph W6.4 kmh W 6.9 mph11.1 kmh 25.19 in853.0 mb 0.00 in0.0 mm 0.00 in/hr0.0 mm/hr 0.00 in0.0 mm
11:38 AM 74.8°F23.8°C 49.5°F9.7°C 41% 4.0 mph W6.4 kmh W 5.4 mph8.7 kmh 25.22 in854.0 mb 0.00 in0.0 mm 0.00 in/hr0.0 mm/hr 0.00 in0.0 mm
11:33 AM 74.3°F23.5°C 50.9°F10.5°C 44% 4.0 mph W6.4 kmh W 5.8 mph9.3 kmh 25.22 in854.0 mb 0.00 in0.0 mm 0.00 in/hr0.0 mm/hr 0.00 in0.0 mm
11:28 AM 74.1°F23.4°C 52.0°F11.1°C 46% 3.0 mph W4.8 kmh W 5.8 mph9.3 kmh 25.22 in854.0 mb 0.00 in0.0 mm 0.00 in/hr0.0 mm/hr 0.00 in0.0 mm
11:23 AM 73.8°F23.2°C 51.1°F10.6°C 45% 4.0 mph W6.4 kmh W 7.4 mph11.9 kmh 25.22 in854.0 mb 0.00 in0.0 mm 0.00 in/hr0.0 mm/hr 0.00 in0.0 mm
11:18 AM 73.0°F22.8°C 50.4°F10.2°C 45% 5.0 mph WSW8.0 kmh WSW 8.3 mph13.4 kmh 25.22 in854.0 mb 0.00 in0.0 mm 0.00 in/hr0.0 mm/hr 0.00 in0.0 mm
11:13 AM 73.2°F22.9°C 49.3°F9.6°C 43% 3.0 mph W4.8 kmh W 9.6 mph15.4 kmh 25.22 in854.0 mb 0.00 in0.0 mm 0.00 in/hr0.0 mm/hr 0.00 in0.0 mm
11:08 AM 73.2°F22.9°C 50.0°F10.0°C 44% 4.0 mph W6.4 kmh W 5.4 mph8.7 kmh 25.22 in854.0 mb 0.00 in0.0 mm 0.00 in/hr0.0 mm/hr 0.00 in0.0 mm
11:03 AM 72.5°F22.5°C 50.5°F10.3°C 46% 5.0 mph W8.0 kmh W 8.7 mph14.0 kmh 25.22 in854.0 mb 0.00 in0.0 mm 0.00 in/hr0.0 mm/hr 0.00 in0.0 mm
10:58 AM 72.5°F22.5°C 50.0°F10.0°C 45% 5.0 mph WSW8.0 kmh WSW 8.7 mph14.0 kmh 25.22 in854.0 mb 0.00 in0.0 mm 0.00 in/hr0.0 mm/hr 0.00 in0.0 mm
10:53 AM 72.7°F22.6°C 52.9°F11.6°C 50% 4.0 mph N6.4 kmh N 8.3 mph13.4 kmh 25.22 in854.0 mb 0.00 in0.0 mm 0.00 in/hr0.0 mm/hr 0.00 in0.0 mm
10:48 AM 73.0°F22.8°C 52.7°F11.5°C 49% 3.0 mph ENE4.8 kmh ENE 6.9 mph11.1 kmh 25.22 in854.0 mb 0.00 in0.0 mm 0.00 in/hr0.0 mm/hr 0.00 in0.0 mm
10:43 AM 73.0°F22.8°C 52.7°F11.5°C 49% 2.0 mph NE3.2 kmh NE 6.3 mph10.1 kmh 25.22 in854.0 mb 0.00 in0.0 mm 0.00 in/hr0.0 mm/hr 0.00 in0.0 mm
10:38 AM 72.5°F22.5°C 52.7°F11.5°C 50% 2.0 mph NW3.2 kmh NW 5.8 mph9.3 kmh 25.22 in854.0 mb 0.00 in0.0 mm 0.00 in/hr0.0 mm/hr 0.00 in0.0 mm
10:33 AM 71.6°F22.0°C 51.4°F10.8°C 49% 3.0 mph NNW4.8 kmh NNW 5.8 mph9.3 kmh 25.22 in854.0 mb 0.00 in0.0 mm 0.00 in/hr0.0 mm/hr 0.00 in0.0 mm
10:28 AM 71.2°F21.8°C 52.2°F11.2°C 51% 3.0 mph N4.8 kmh N 6.7 mph10.8 kmh 25.22 in854.0 mb 0.00 in0.0 mm 0.00 in/hr0.0 mm/hr 0.00 in0.0 mm
10:23 AM 71.2°F21.8°C 52.7°F11.5°C 52% 3.0 mph N4.8 kmh N 5.8 mph9.3 kmh 25.22 in854.0 mb 0.00 in0.0 mm 0.00 in/hr0.0 mm/hr 0.00 in0.0 mm
10:18 AM 71.4°F21.9°C 54.3°F12.4°C 55% 3.0 mph NNW4.8 kmh NNW 6.3 mph10.1 kmh 25.22 in854.0 mb 0.00 in0.0 mm 0.00 in/hr0.0 mm/hr 0.00 in0.0 mm
10:13 AM 71.1°F21.7°C 52.5°F11.4°C 52% 3.0 mph NW4.8 kmh NW 5.8 mph9.3 kmh 25.22 in854.0 mb 0.00 in0.0 mm 0.00 in/hr0.0 mm/hr 0.00 in0.0 mm
10:08 AM 71.4°F21.9°C 54.0°F12.2°C 54% 3.0 mph WNW4.8 kmh WNW 7.8 mph12.6 kmh 25.22 in854.0 mb 0.00 in0.0 mm 0.00 in/hr0.0 mm/hr 0.00 in0.0 mm
10:03 AM 71.2°F21.8°C 54.7°F12.6°C 56% 4.0 mph WNW6.4 kmh WNW 4.9 mph7.9 kmh 25.22 in854.0 mb 0.00 in0.0 mm 0.00 in/hr0.0 mm/hr 0.00 in0.0 mm
09:58 AM 70.2°F21.2°C 53.2°F11.8°C 55% 4.0 mph NW6.4 kmh NW 6.9 mph11.1 kmh 25.22 in854.0 mb 0.00 in0.0 mm 0.00 in/hr0.0 mm/hr 0.00 in0.0 mm
09:53 AM 70.3°F21.3°C 52.9°F11.6°C 54% 4.0 mph NNW6.4 kmh NNW 6.9 mph11.1 kmh 25.22 in854.0 mb 0.00 in0.0 mm 0.00 in/hr0.0 mm/hr 0.00 in0.0 mm
09:48 AM 70.5°F21.4°C 53.6°F12.0°C 55% 4.0 mph N6.4 kmh N 6.7 mph10.8 kmh 25.22 in854.0 mb 0.00 in0.0 mm 0.00 in/hr0.0 mm/hr 0.00 in0.0 mm
09:43 AM 69.4°F20.8°C 52.5°F11.4°C 55% 4.0 mph N6.4 kmh N 7.4 mph11.9 kmh 25.22 in854.0 mb 0.00 in0.0 mm 0.00 in/hr0.0 mm/hr 0.00 in0.0 mm
09:38 AM 69.4°F20.8°C 53.1°F11.7°C 56% 4.0 mph N6.4 kmh N 9.2 mph14.8 kmh 25.22 in854.0 mb 0.00 in0.0 mm 0.00 in/hr0.0 mm/hr 0.00 in0.0 mm
09:33 AM 69.8°F21.0°C 53.8°F12.1°C 57% 4.0 mph NNW6.4 kmh NNW 5.4 mph8.7 kmh 25.22 in854.0 mb 0.00 in0.0 mm 0.00 in/hr0.0 mm/hr 0.00 in0.0 mm
09:28 AM 69.3°F20.7°C 52.9°F11.6°C 56% 4.0 mph N6.4 kmh N 6.9 mph11.1 kmh 25.22 in854.0 mb 0.00 in0.0 mm 0.00 in/hr0.0 mm/hr 0.00 in0.0 mm
09:23 AM 69.4°F20.8°C 53.1°F11.7°C 56% 4.0 mph NNW6.4 kmh NNW 5.8 mph9.3 kmh 25.22 in854.0 mb 0.00 in0.0 mm 0.00 in/hr0.0 mm/hr 0.00 in0.0 mm
09:18 AM 69.1°F20.6°C 53.2°F11.8°C 57% 4.0 mph NNW6.4 kmh NNW 5.8 mph9.3 kmh 25.22 in854.0 mb 0.00 in0.0 mm 0.00 in/hr0.0 mm/hr 0.00 in0.0 mm
09:13 AM 68.4°F20.2°C 53.1°F11.7°C 58% 4.0 mph N6.4 kmh N 6.3 mph10.1 kmh 25.22 in854.0 mb 0.00 in0.0 mm 0.00 in/hr0.0 mm/hr 0.00 in0.0 mm
09:08 AM 68.0°F20.0°C 53.6°F12.0°C 60% 4.0 mph NNW6.4 kmh NNW 6.3 mph10.1 kmh 25.22 in854.0 mb 0.00 in0.0 mm 0.00 in/hr0.0 mm/hr 0.00 in0.0 mm
09:03 AM 68.4°F20.2°C 54.3°F12.4°C 61% 4.0 mph NNW6.4 kmh NNW 6.7 mph10.8 kmh 25.22 in854.0 mb 0.00 in0.0 mm 0.00 in/hr0.0 mm/hr 0.00 in0.0 mm
08:58 AM 68.0°F20.0°C 54.5°F12.5°C 62% 5.0 mph NNW8.0 kmh NNW 7.8 mph12.6 kmh 25.22 in854.0 mb 0.00 in0.0 mm 0.00 in/hr0.0 mm/hr 0.00 in0.0 mm
08:53 AM 67.1°F19.5°C 53.2°F11.8°C 61% 6.0 mph N9.7 kmh N 9.6 mph15.4 kmh 25.22 in854.0 mb 0.00 in0.0 mm 0.00 in/hr0.0 mm/hr 0.00 in0.0 mm
08:48 AM 67.3°F19.6°C 54.3°F12.4°C 63% 6.0 mph N9.7 kmh N 11.0 mph17.7 kmh 25.22 in854.0 mb 0.00 in0.0 mm 0.00 in/hr0.0 mm/hr 0.00 in0.0 mm
08:43 AM 66.9°F19.4°C 54.7°F12.6°C 65% 6.0 mph N9.7 kmh N 9.2 mph14.8 kmh 25.22 in854.0 mb 0.00 in0.0 mm 0.00 in/hr0.0 mm/hr 0.00 in0.0 mm
08:38 AM 66.6°F19.2°C 55.2°F12.9°C 67% 7.0 mph N11.3 kmh N 10.5 mph16.9 kmh 25.22 in854.0 mb 0.00 in0.0 mm 0.00 in/hr0.0 mm/hr 0.00 in0.0 mm
08:33 AM 66.6°F19.2°C 55.6°F13.1°C 68% 7.0 mph N11.3 kmh N 9.6 mph15.4 kmh 25.22 in854.0 mb 0.00 in0.0 mm 0.00 in/hr0.0 mm/hr 0.00 in0.0 mm
08:28 AM 65.8°F18.8°C 54.5°F12.5°C 67% 8.0 mph N12.9 kmh N 11.6 mph18.7 kmh 25.22 in854.0 mb 0.00 in0.0 mm 0.00 in/hr0.0 mm/hr 0.00 in0.0 mm
08:23 AM 66.0°F18.9°C 54.7°F12.6°C 67% 7.0 mph N11.3 kmh N 11.0 mph17.7 kmh 25.22 in854.0 mb 0.00 in0.0 mm 0.00 in/hr0.0 mm/hr 0.00 in0.0 mm
08:18 AM 66.0°F18.9°C 55.2°F12.9°C 68% 8.0 mph N12.9 kmh N 11.0 mph17.7 kmh 25.22 in854.0 mb 0.00 in0.0 mm 0.00 in/hr0.0 mm/hr 0.00 in0.0 mm
08:13 AM 65.7°F18.7°C 54.9°F12.7°C 68% 9.0 mph N14.5 kmh N 12.1 mph19.5 kmh 25.22 in854.0 mb 0.00 in0.0 mm 0.00 in/hr0.0 mm/hr 0.00 in0.0 mm
08:08 AM 65.5°F18.6°C 54.1°F12.3°C 67% 8.0 mph N12.9 kmh N 11.2 mph18.0 kmh 25.22 in854.0 mb 0.00 in0.0 mm 0.00 in/hr0.0 mm/hr 0.00 in0.0 mm
08:03 AM 65.7°F18.7°C 54.9°F12.7°C 68% 7.0 mph N11.3 kmh N 12.5 mph20.1 kmh 25.22 in854.0 mb 0.00 in0.0 mm 0.00 in/hr0.0 mm/hr 0.00 in0.0 mm
07:58 AM 65.7°F18.7°C 54.9°F12.7°C 68% 7.0 mph N11.3 kmh N 12.1 mph19.5 kmh 25.22 in854.0 mb 0.00 in0.0 mm 0.00 in/hr0.0 mm/hr 0.00 in0.0 mm
07:53 AM 65.8°F18.8°C 55.4°F13.0°C 69% 6.0 mph NNE9.7 kmh NNE 9.2 mph14.8 kmh 25.22 in854.0 mb 0.00 in0.0 mm 0.00 in/hr0.0 mm/hr 0.00 in0.0 mm
07:48 AM 65.7°F18.7°C 55.6°F13.1°C 70% 5.0 mph NNE8.0 kmh NNE 8.3 mph13.4 kmh 25.22 in854.0 mb 0.00 in0.0 mm 0.00 in/hr0.0 mm/hr 0.00 in0.0 mm
07:43 AM 65.3°F18.5°C 55.6°F13.1°C 71% 5.0 mph N8.0 kmh N 7.4 mph11.9 kmh 25.22 in854.0 mb 0.00 in0.0 mm 0.00 in/hr0.0 mm/hr 0.00 in0.0 mm
07:38 AM 65.1°F18.4°C 55.9°F13.3°C 72% 5.0 mph N8.0 kmh N 7.4 mph11.9 kmh 25.19 in853.0 mb 0.00 in0.0 mm 0.00 in/hr0.0 mm/hr 0.00 in0.0 mm
07:33 AM 64.9°F18.3°C 55.8°F13.2°C 72% 5.0 mph N8.0 kmh N 6.9 mph11.1 kmh 25.19 in853.0 mb 0.00 in0.0 mm 0.00 in/hr0.0 mm/hr 0.00 in0.0 mm
07:28 AM 64.6°F18.1°C 55.8°F13.2°C 73% 5.0 mph N8.0 kmh N 6.9 mph11.1 kmh 25.19 in853.0 mb 0.00 in0.0 mm 0.00 in/hr0.0 mm/hr 0.00 in0.0 mm
07:23 AM 64.4°F18.0°C 56.3°F13.5°C 75% 5.0 mph N8.0 kmh N 8.3 mph13.4 kmh 25.22 in854.0 mb 0.00 in0.0 mm 0.00 in/hr0.0 mm/hr 0.00 in0.0 mm
07:18 AM 63.7°F17.6°C 56.7°F13.7°C 78% 5.0 mph NNE8.0 kmh NNE 7.4 mph11.9 kmh 25.22 in854.0 mb 0.00 in0.0 mm 0.00 in/hr0.0 mm/hr 0.00 in0.0 mm
07:13 AM 63.0°F17.2°C 56.7°F13.7°C 80% 5.0 mph NNE8.0 kmh NNE 7.8 mph12.6 kmh 25.22 in854.0 mb 0.00 in0.0 mm 0.00 in/hr0.0 mm/hr 0.00 in0.0 mm
07:08 AM 62.6°F17.0°C 56.7°F13.7°C 81% 5.0 mph NNE8.0 kmh NNE 7.4 mph11.9 kmh 25.22 in854.0 mb 0.00 in0.0 mm 0.00 in/hr0.0 mm/hr 0.00 in0.0 mm
07:03 AM 61.9°F16.6°C 56.3°F13.5°C 82% 5.0 mph NE8.0 kmh NE 7.4 mph11.9 kmh 25.22 in854.0 mb 0.00 in0.0 mm 0.00 in/hr0.0 mm/hr 0.00 in0.0 mm
06:58 AM 61.5°F16.4°C 55.9°F13.3°C 82% 4.0 mph NE6.4 kmh NE 6.9 mph11.1 kmh 25.22 in854.0 mb 0.00 in0.0 mm 0.00 in/hr0.0 mm/hr 0.00 in0.0 mm
06:53 AM 61.3°F16.3°C 56.1°F13.4°C 83% 4.0 mph NE6.4 kmh NE 4.9 mph7.9 kmh 25.22 in854.0 mb 0.00 in0.0 mm 0.00 in/hr0.0 mm/hr 0.00 in0.0 mm
06:48 AM 61.3°F16.3°C 56.1°F13.4°C 83% 4.0 mph NNE6.4 kmh NNE 6.7 mph10.8 kmh 25.22 in854.0 mb 0.00 in0.0 mm 0.00 in/hr0.0 mm/hr 0.00 in0.0 mm
06:43 AM 60.6°F15.9°C 55.4°F13.0°C 83% 4.0 mph NNE6.4 kmh NNE 5.8 mph9.3 kmh 25.19 in853.0 mb 0.00 in0.0 mm 0.00 in/hr0.0 mm/hr 0.00 in0.0 mm
06:38 AM 60.6°F15.9°C 55.4°F13.0°C 83% 4.0 mph N6.4 kmh N 6.3 mph10.1 kmh 25.19 in853.0 mb 0.00 in0.0 mm 0.00 in/hr0.0 mm/hr 0.00 in0.0 mm
06:33 AM 60.6°F15.9°C 55.4°F13.0°C 83% 2.0 mph N3.2 kmh N 4.9 mph7.9 kmh 25.19 in853.0 mb 0.00 in0.0 mm 0.00 in/hr0.0 mm/hr 0.00 in0.0 mm
06:28 AM 60.4°F15.8°C 54.9°F12.7°C 82% 2.0 mph N3.2 kmh N 4.5 mph7.2 kmh 25.19 in853.0 mb 0.00 in0.0 mm 0.00 in/hr0.0 mm/hr 0.00 in0.0 mm
06:23 AM 60.6°F15.9°C 55.0°F12.8°C 82% 2.0 mph N3.2 kmh N 3.6 mph5.8 kmh 25.19 in853.0 mb 0.00 in0.0 mm 0.00 in/hr0.0 mm/hr 0.00 in0.0 mm
06:18 AM 60.8°F16.0°C 55.2°F12.9°C 82% 2.0 mph N3.2 kmh N 4.5 mph7.2 kmh 25.19 in853.0 mb 0.00 in0.0 mm 0.00 in/hr0.0 mm/hr 0.00 in0.0 mm
06:13 AM 61.2°F16.2°C 55.6°F13.1°C 82% 3.0 mph N4.8 kmh N 5.4 mph8.7 kmh 25.19 in853.0 mb 0.00 in0.0 mm 0.00 in/hr0.0 mm/hr 0.00 in0.0 mm
06:08 AM 61.2°F16.2°C 55.6°F13.1°C 82% 4.0 mph N6.4 kmh N 6.3 mph10.1 kmh 25.19 in853.0 mb 0.00 in0.0 mm 0.00 in/hr0.0 mm/hr 0.00 in0.0 mm
06:03 AM 61.3°F16.3°C 56.1°F13.4°C 83% 4.0 mph N6.4 kmh N 5.4 mph8.7 kmh 25.19 in853.0 mb 0.00 in0.0 mm 0.00 in/hr0.0 mm/hr 0.00 in0.0 mm
05:58 AM 61.3°F16.3°C 56.5°F13.6°C 84% 4.0 mph N6.4 kmh N 5.4 mph8.7 kmh 25.19 in853.0 mb 0.00 in0.0 mm 0.00 in/hr0.0 mm/hr 0.00 in0.0 mm
05:53 AM 61.5°F16.4°C 56.7°F13.7°C 84% 4.0 mph 6.4 kmh 5.4 mph8.7 kmh 25.19 in853.0 mb 0.00 in0.0 mm 0.00 in/hr0.0 mm/hr 0.00 in0.0 mm
05:48 AM 61.7°F16.5°C 57.2°F14.0°C 85% 3.0 mph 4.8 kmh 5.4 mph8.7 kmh 25.19 in853.0 mb 0.00 in0.0 mm 0.00 in/hr0.0 mm/hr 0.00 in0.0 mm
05:43 AM 61.3°F16.3°C 56.8°F13.8°C 85% 2.0 mph 3.2 kmh 4.9 mph7.9 kmh 25.19 in853.0 mb 0.00 in0.0 mm 0.00 in/hr0.0 mm/hr 0.00 in0.0 mm
05:38 AM 61.2°F16.2°C 56.7°F13.7°C 85% 2.0 mph 3.2 kmh 4.0 mph6.4 kmh 25.19 in853.0 mb 0.00 in0.0 mm 0.00 in/hr0.0 mm/hr 0.00 in0.0 mm
05:33 AM 61.0°F16.1°C 56.5°F13.6°C 85% 3.0 mph 4.8 kmh 4.0 mph6.4 kmh 25.19 in853.0 mb 0.00 in0.0 mm 0.00 in/hr0.0 mm/hr 0.00 in0.0 mm
05:28 AM 61.2°F16.2°C 56.7°F13.7°C 85% 3.0 mph N4.8 kmh N 4.0 mph6.4 kmh 25.19 in853.0 mb 0.00 in0.0 mm 0.00 in/hr0.0 mm/hr 0.00 in0.0 mm
05:23 AM 61.2°F16.2°C 56.7°F13.7°C 85% 3.0 mph 4.8 kmh 5.4 mph8.7 kmh 25.19 in853.0 mb 0.00 in0.0 mm 0.00 in/hr0.0 mm/hr 0.00 in0.0 mm
05:18 AM 61.3°F16.3°C 56.5°F13.6°C 84% 3.0 mph 4.8 kmh 5.8 mph9.3 kmh 25.19 in853.0 mb 0.00 in0.0 mm 0.00 in/hr0.0 mm/hr 0.00 in0.0 mm
05:13 AM 61.3°F16.3°C 56.8°F13.8°C 85% 3.0 mph 4.8 kmh 4.9 mph7.9 kmh 25.19 in853.0 mb 0.00 in0.0 mm 0.00 in/hr0.0 mm/hr 0.00 in0.0 mm
05:08 AM 60.8°F16.0°C 55.9°F13.3°C 84% 2.0 mph 3.2 kmh 5.4 mph8.7 kmh 25.19 in853.0 mb 0.00 in0.0 mm 0.00 in/hr0.0 mm/hr 0.00 in0.0 mm
05:03 AM 61.2°F16.2°C 56.3°F13.5°C 84% Calm Calm -- 25.19 in853.0 mb 0.00 in0.0 mm 0.00 in/hr0.0 mm/hr 0.00 in0.0 mm
04:58 AM 61.2°F16.2°C 56.3°F13.5°C 84% Calm Calm -- 25.19 in853.0 mb 0.00 in0.0 mm 0.00 in/hr0.0 mm/hr 0.00 in0.0 mm
04:53 AM 61.3°F16.3°C 56.5°F13.6°C 84% Calm Calm -- 25.19 in853.0 mb 0.00 in0.0 mm 0.00 in/hr0.0 mm/hr 0.00 in0.0 mm
04:48 AM 61.3°F16.3°C 56.1°F13.4°C 83% Calm Calm -- 25.19 in853.0 mb 0.00 in0.0 mm 0.00 in/hr0.0 mm/hr 0.00 in0.0 mm
04:43 AM 61.3°F16.3°C 56.1°F13.4°C 83% Calm Calm 2.7 mph4.3 kmh 25.19 in853.0 mb 0.00 in0.0 mm 0.00 in/hr0.0 mm/hr 0.00 in0.0 mm
04:38 AM 61.3°F16.3°C 56.1°F13.4°C 83% Calm Calm 2.7 mph4.3 kmh 25.19 in853.0 mb 0.00 in0.0 mm 0.00 in/hr0.0 mm/hr 0.00 in0.0 mm
04:33 AM 61.3°F16.3°C 55.8°F13.2°C 82% 1.0 mph 1.6 kmh -- 25.19 in853.0 mb 0.00 in0.0 mm 0.00 in/hr0.0 mm/hr 0.00 in0.0 mm
04:28 AM 61.9°F16.6°C 55.9°F13.3°C 81% 2.0 mph 3.2 kmh 4.0 mph6.4 kmh 25.19 in853.0 mb 0.00 in0.0 mm 0.00 in/hr0.0 mm/hr 0.00 in0.0 mm
04:23 AM 62.6°F17.0°C 56.3°F13.5°C 80% 2.0 mph N3.2 kmh N 4.5 mph7.2 kmh 25.19 in853.0 mb 0.00 in0.0 mm 0.00 in/hr0.0 mm/hr 0.00 in0.0 mm
04:18 AM 63.1°F17.3°C 57.2°F14.0°C 81% 2.0 mph N3.2 kmh N 3.6 mph5.8 kmh 25.19 in853.0 mb 0.00 in0.0 mm 0.00 in/hr0.0 mm/hr 0.00 in0.0 mm
04:13 AM 63.0°F17.2°C 57.4°F14.1°C 82% 3.0 mph 4.8 kmh 4.0 mph6.4 kmh 25.19 in853.0 mb 0.00 in0.0 mm 0.00 in/hr0.0 mm/hr 0.00 in0.0 mm
04:08 AM 62.6°F17.0°C 57.4°F14.1°C 83% 2.0 mph N3.2 kmh N 3.6 mph5.8 kmh 25.19 in853.0 mb 0.00 in0.0 mm 0.00 in/hr0.0 mm/hr 0.00 in0.0 mm
04:03 AM 62.1°F16.7°C 57.2°F14.0°C 84% Calm Calm 3.6 mph5.8 kmh 25.19 in853.0 mb 0.00 in0.0 mm 0.00 in/hr0.0 mm/hr 0.00 in0.0 mm
03:58 AM 61.9°F16.6°C 56.7°F13.7°C 83% Calm Calm 2.7 mph4.3 kmh 25.19 in853.0 mb 0.00 in0.0 mm 0.00 in/hr0.0 mm/hr 0.00 in0.0 mm
03:53 AM 62.2°F16.8°C 57.0°F13.9°C 83% 1.0 mph N1.6 kmh N 3.1 mph5.0 kmh 25.19 in853.0 mb 0.00 in0.0 mm 0.00 in/hr0.0 mm/hr 0.00 in0.0 mm
03:48 AM 62.6°F17.0°C 57.4°F14.1°C 83% 2.0 mph 3.2 kmh 4.5 mph7.2 kmh 25.19 in853.0 mb 0.00 in0.0 mm 0.00 in/hr0.0 mm/hr 0.00 in0.0 mm
03:43 AM 62.4°F16.9°C 57.6°F14.2°C 84% 1.0 mph 1.6 kmh 4.0 mph6.4 kmh 25.19 in853.0 mb 0.00 in0.0 mm 0.00 in/hr0.0 mm/hr 0.00 in0.0 mm
03:38 AM 62.1°F16.7°C 57.2°F14.0°C 84% 1.0 mph 1.6 kmh 2.7 mph4.3 kmh 25.19 in853.0 mb 0.00 in0.0 mm 0.00 in/hr0.0 mm/hr 0.00 in0.0 mm
03:33 AM 62.1°F16.7°C 57.2°F14.0°C 84% 2.0 mph 3.2 kmh 4.0 mph6.4 kmh 25.19 in853.0 mb 0.00 in0.0 mm 0.00 in/hr0.0 mm/hr 0.00 in0.0 mm
03:28 AM 62.4°F16.9°C 57.6°F14.2°C 84% 3.0 mph 4.8 kmh 5.4 mph8.7 kmh 25.19 in853.0 mb 0.00 in0.0 mm 0.00 in/hr0.0 mm/hr 0.00 in0.0 mm
03:23 AM 62.2°F16.8°C 57.0°F13.9°C 83% 3.0 mph N4.8 kmh N 5.8 mph9.3 kmh 25.19 in853.0 mb 0.00 in0.0 mm 0.00 in/hr0.0 mm/hr 0.00 in0.0 mm
03:18 AM 62.2°F16.8°C 57.0°F13.9°C 83% 3.0 mph N4.8 kmh N 4.5 mph7.2 kmh 25.19 in853.0 mb 0.00 in0.0 mm 0.00 in/hr0.0 mm/hr 0.00 in0.0 mm
03:13 AM 62.2°F16.8°C 57.0°F13.9°C 83% 3.0 mph N4.8 kmh N 4.5 mph7.2 kmh 25.19 in853.0 mb 0.00 in0.0 mm 0.00 in/hr0.0 mm/hr 0.00 in0.0 mm
03:08 AM 62.4°F16.9°C 57.2°F14.0°C 83% 3.0 mph WNW4.8 kmh WNW 5.8 mph9.3 kmh 25.19 in853.0 mb 0.00 in0.0 mm 0.00 in/hr0.0 mm/hr 0.00 in0.0 mm
03:03 AM 62.6°F17.0°C 57.4°F14.1°C 83% 1.0 mph WSW1.6 kmh WSW 4.5 mph7.2 kmh 25.19 in853.0 mb 0.00 in0.0 mm 0.00 in/hr0.0 mm/hr 0.00 in0.0 mm
02:58 AM 62.4°F16.9°C 57.6°F14.2°C 84% Calm Calm 3.1 mph5.0 kmh 25.19 in853.0 mb 0.00 in0.0 mm 0.00 in/hr0.0 mm/hr 0.00 in0.0 mm
02:53 AM 62.4°F16.9°C 57.6°F14.2°C 84% 1.0 mph WSW1.6 kmh WSW 3.1 mph5.0 kmh 25.19 in853.0 mb 0.00 in0.0 mm 0.00 in/hr0.0 mm/hr 0.00 in0.0 mm
02:47 AM 62.2°F16.8°C 57.7°F14.3°C 85% Calm Calm 3.1 mph5.0 kmh 25.19 in853.0 mb 0.00 in0.0 mm 0.00 in/hr0.0 mm/hr 0.00 in0.0 mm
02:42 AM 62.2°F16.8°C 57.7°F14.3°C 85% Calm Calm -- 25.19 in853.0 mb 0.00 in0.0 mm 0.00 in/hr0.0 mm/hr 0.00 in0.0 mm
02:37 AM 62.2°F16.8°C 57.7°F14.3°C 85% Calm Calm -- 25.19 in853.0 mb 0.00 in0.0 mm 0.00 in/hr0.0 mm/hr 0.00 in0.0 mm
02:32 AM 62.2°F16.8°C 57.7°F14.3°C 85% Calm Calm 2.7 mph4.3 kmh 25.19 in853.0 mb 0.00 in0.0 mm 0.00 in/hr0.0 mm/hr 0.00 in0.0 mm
02:27 AM 62.2°F16.8°C 57.9°F14.4°C 86% Calm Calm 3.6 mph5.8 kmh 25.19 in853.0 mb 0.00 in0.0 mm 0.00 in/hr0.0 mm/hr 0.00 in0.0 mm
02:22 AM 62.2°F16.8°C 57.7°F14.3°C 85% Calm Calm -- 25.19 in853.0 mb 0.00 in0.0 mm 0.00 in/hr0.0 mm/hr 0.00 in0.0 mm
02:17 AM 62.2°F16.8°C 57.7°F14.3°C 85% Calm Calm 2.7 mph4.3 kmh 25.19 in853.0 mb 0.00 in0.0 mm 0.00 in/hr0.0 mm/hr 0.00 in0.0 mm
02:12 AM 62.6°F17.0°C 57.7°F14.3°C 84% Calm Calm 3.1 mph5.0 kmh 25.19 in853.0 mb 0.00 in0.0 mm 0.00 in/hr0.0 mm/hr 0.00 in0.0 mm
02:07 AM 63.0°F17.2°C 57.7°F14.3°C 83% Calm Calm -- 25.19 in853.0 mb 0.00 in0.0 mm 0.00 in/hr0.0 mm/hr 0.00 in0.0 mm
02:02 AM 63.1°F17.3°C 57.6°F14.2°C 82% 1.0 mph WSW1.6 kmh WSW 2.7 mph4.3 kmh 25.19 in853.0 mb 0.00 in0.0 mm 0.00 in/hr0.0 mm/hr 0.00 in0.0 mm
01:57 AM 63.5°F17.5°C 57.6°F14.2°C 81% 2.0 mph WSW3.2 kmh WSW 4.0 mph6.4 kmh 25.19 in853.0 mb 0.00 in0.0 mm 0.00 in/hr0.0 mm/hr 0.00 in0.0 mm
01:52 AM 63.7°F17.6°C 57.4°F14.1°C 80% 1.0 mph WSW1.6 kmh WSW 4.0 mph6.4 kmh 25.19 in853.0 mb 0.00 in0.0 mm 0.00 in/hr0.0 mm/hr 0.00 in0.0 mm
01:47 AM 63.7°F17.6°C 57.0°F13.9°C 79% 1.0 mph WSW1.6 kmh WSW 4.0 mph6.4 kmh 25.19 in853.0 mb 0.00 in0.0 mm 0.00 in/hr0.0 mm/hr 0.00 in0.0 mm
01:42 AM 63.7°F17.6°C 57.0°F13.9°C 79% 3.0 mph WSW4.8 kmh WSW 3.6 mph5.8 kmh 25.19 in853.0 mb 0.00 in0.0 mm 0.00 in/hr0.0 mm/hr 0.00 in0.0 mm
01:37 AM 63.9°F17.7°C 57.2°F14.0°C 79% 3.0 mph WSW4.8 kmh WSW 4.9 mph7.9 kmh 25.19 in853.0 mb 0.00 in0.0 mm 0.00 in/hr0.0 mm/hr 0.00 in0.0 mm
01:32 AM 64.0°F17.8°C 57.0°F13.9°C 78% 3.0 mph WSW4.8 kmh WSW 4.5 mph7.2 kmh 25.19 in853.0 mb 0.00 in0.0 mm 0.00 in/hr0.0 mm/hr 0.00 in0.0 mm
01:27 AM 64.0°F17.8°C 56.7°F13.7°C 77% 3.0 mph WSW4.8 kmh WSW 4.5 mph7.2 kmh 25.19 in853.0 mb 0.00 in0.0 mm 0.00 in/hr0.0 mm/hr 0.00 in0.0 mm
01:22 AM 64.2°F17.9°C 57.2°F14.0°C 78% 3.0 mph SW4.8 kmh SW 4.9 mph7.9 kmh 25.19 in853.0 mb 0.00 in0.0 mm 0.00 in/hr0.0 mm/hr 0.00 in0.0 mm
01:17 AM 64.4°F18.0°C 56.7°F13.7°C 76% 4.0 mph SW6.4 kmh SW 5.4 mph8.7 kmh 25.19 in853.0 mb 0.00 in0.0 mm 0.00 in/hr0.0 mm/hr 0.00 in0.0 mm
01:12 AM 64.6°F18.1°C 56.5°F13.6°C 75% 3.0 mph SW4.8 kmh SW 5.4 mph8.7 kmh 25.19 in853.0 mb 0.00 in0.0 mm 0.00 in/hr0.0 mm/hr 0.00 in0.0 mm
01:07 AM 65.1°F18.4°C 56.3°F13.5°C 73% 2.0 mph SW3.2 kmh SW 4.5 mph7.2 kmh 25.19 in853.0 mb 0.00 in0.0 mm 0.00 in/hr0.0 mm/hr 0.00 in0.0 mm
01:02 AM 65.5°F18.6°C 54.7°F12.6°C 68% 2.0 mph WSW3.2 kmh WSW 4.0 mph6.4 kmh 25.19 in853.0 mb 0.00 in0.0 mm 0.00 in/hr0.0 mm/hr 0.00 in0.0 mm
12:57 AM 65.5°F18.6°C 54.1°F12.3°C 67% 1.0 mph WSW1.6 kmh WSW 4.0 mph6.4 kmh 25.19 in853.0 mb 0.00 in0.0 mm 0.00 in/hr0.0 mm/hr 0.00 in0.0 mm
12:52 AM 65.5°F18.6°C 54.7°F12.6°C 68% Calm Calm 3.1 mph5.0 kmh 25.19 in853.0 mb 0.00 in0.0 mm 0.00 in/hr0.0 mm/hr 0.00 in0.0 mm
12:47 AM 65.7°F18.7°C 54.3°F12.4°C 67% 1.0 mph WSW1.6 kmh WSW 3.1 mph5.0 kmh 25.19 in853.0 mb 0.00 in0.0 mm 0.00 in/hr0.0 mm/hr 0.00 in0.0 mm
12:42 AM 65.8°F18.8°C 53.8°F12.1°C 65% 2.0 mph W3.2 kmh W 4.5 mph7.2 kmh 25.19 in853.0 mb 0.00 in0.0 mm 0.00 in/hr0.0 mm/hr 0.00 in0.0 mm
12:37 AM 65.8°F18.8°C 53.2°F11.8°C 64% 1.0 mph NW1.6 kmh NW 5.4 mph8.7 kmh 25.19 in853.0 mb 0.00 in0.0 mm 0.00 in/hr0.0 mm/hr 0.00 in0.0 mm
12:32 AM 66.2°F19.0°C 53.2°F11.8°C 63% 1.0 mph NW1.6 kmh NW 3.1 mph5.0 kmh 25.19 in853.0 mb 0.00 in0.0 mm 0.00 in/hr0.0 mm/hr 0.00 in0.0 mm
12:27 AM 66.4°F19.1°C 52.9°F11.6°C 62% 3.0 mph NW4.8 kmh NW 6.3 mph10.1 kmh 25.22 in854.0 mb 0.00 in0.0 mm 0.00 in/hr0.0 mm/hr 0.00 in0.0 mm
12:22 AM 66.6°F19.2°C 52.7°F11.5°C 61% 4.0 mph NW6.4 kmh NW 6.9 mph11.1 kmh 25.22 in854.0 mb 0.00 in0.0 mm 0.00 in/hr0.0 mm/hr 0.00 in0.0 mm
12:17 AM 66.4°F19.1°C 52.9°F11.6°C 62% 4.0 mph NW6.4 kmh NW 6.3 mph10.1 kmh 25.22 in854.0 mb 0.00 in0.0 mm 0.00 in/hr0.0 mm/hr 0.00 in0.0 mm
12:12 AM 66.6°F19.2°C 52.7°F11.5°C 61% 5.0 mph NW8.0 kmh NW 6.9 mph11.1 kmh 25.19 in853.0 mb 0.00 in0.0 mm 0.00 in/hr0.0 mm/hr 0.00 in0.0 mm
12:07 AM 66.7°F19.3°C 52.0°F11.1°C 59% 6.0 mph NNW9.7 kmh NNW 9.2 mph14.8 kmh 25.19 in853.0 mb 0.00 in0.0 mm 0.00 in/hr0.0 mm/hr 0.00 in0.0 mm
12:02 AM 66.9°F19.4°C 50.7°F10.4°C 56% 6.0 mph NW9.7 kmh NW 9.2 mph14.8 kmh 25.19 in853.0 mb 0.00 in0.0 mm 0.00 in/hr0.0 mm/hr 0.00 in0.0 mm
WeatherForYou.com, LLC is not responsible for any damages or problems caused by this service. Current weather conditions are obtained from the closest station including government and personal stations which may have varying degrees of accuracy. Weather forecasts are derived from the NOAA NDFD and obtained through HAMweather's Aeris Weather API. Like all things, this site belongs to Jesus Christ... He just trusts me to maintain it. If you have any questions or comments email webmaster@weatherforyou.com

Copyright © 2014, WeatherForYou.com LLC. All rights reserved.